sensor_id;sensor_type;location;lat;lon;timestamp;pressure;altitude;pressure_sealevel;temperature;humidity
47556;BME280;33291;46.222;26.460;2023-04-04T09:35:25;96264.72;;;0.63;89.35
47556;BME280;33291;46.222;26.460;2023-04-04T09:37:51;96257.88;;;0.64;89.59
47556;BME280;33291;46.222;26.460;2023-04-04T09:40:17;96247.94;;;0.58;89.33
47556;BME280;33291;46.222;26.460;2023-04-04T09:42:43;96242.97;;;0.55;89.39
47556;BME280;33291;46.222;26.460;2023-04-04T09:45:09;96242.16;;;0.54;89.77
47556;BME280;33291;46.222;26.460;2023-04-04T09:47:39;96237.53;;;0.45;89.75
47556;BME280;33291;46.222;26.460;2023-04-04T09:50:07;96233.56;;;0.39;89.92
47556;BME280;33291;46.222;26.460;2023-04-04T09:52:33;96227.38;;;0.43;90.36
47556;BME280;33291;46.222;26.460;2023-04-04T09:55:03;96214.91;;;0.37;90.50
47556;BME280;33291;46.222;26.460;2023-04-04T09:57:31;96225.53;;;0.45;90.78
47556;BME280;33291;46.222;26.460;2023-04-04T09:59:58;96216.41;;;0.41;90.87
47556;BME280;33291;46.222;26.460;2023-04-04T10:02:24;96215.88;;;0.50;90.79
47556;BME280;33291;46.222;26.460;2023-04-04T10:04:52;96202.66;;;0.42;91.11
47556;BME280;33291;46.222;26.460;2023-04-04T10:07:17;96194.50;;;0.35;90.04
47556;BME280;33291;46.222;26.460;2023-04-04T10:09:45;96204.47;;;0.40;90.48
47556;BME280;33291;46.222;26.460;2023-04-04T10:12:11;96193.75;;;0.33;90.87
47556;BME280;33291;46.222;26.460;2023-04-04T10:14:37;96211.44;;;0.38;91.18
47556;BME280;33291;46.222;26.460;2023-04-04T10:17:07;96190.13;;;0.22;90.61
47556;BME280;33291;46.222;26.460;2023-04-04T10:19:38;96202.25;;;0.34;90.66
47556;BME280;33291;46.222;26.460;2023-04-04T10:22:04;96201.66;;;0.29;91.42
47556;BME280;33291;46.222;26.460;2023-04-04T10:24:30;96211.78;;;0.32;91.41
47556;BME280;33291;46.222;26.460;2023-04-04T10:26:56;96196.41;;;0.32;91.32
47556;BME280;33291;46.222;26.460;2023-04-04T10:29:23;96195.38;;;0.34;91.46
47556;BME280;33291;46.222;26.460;2023-04-04T10:31:54;96194.56;;;0.34;90.79
47556;BME280;33291;46.222;26.460;2023-04-04T10:39:37;96205.81;;;0.47;90.55
47556;BME280;33291;46.222;26.460;2023-04-04T10:42:05;96189.50;;;0.48;90.19
47556;BME280;33291;46.222;26.460;2023-04-04T10:44:33;96180.09;;;0.49;89.79
47556;BME280;33291;46.222;26.460;2023-04-04T10:49:43;96181.81;;;0.48;89.92
47556;BME280;33291;46.222;26.460;2023-04-04T10:52:11;96146.31;;;0.26;90.00
47556;BME280;33291;46.222;26.460;2023-04-04T10:54:39;96185.31;;;0.47;90.45
47556;BME280;33291;46.222;26.460;2023-04-04T10:57:05;96172.91;;;0.40;90.48
47556;BME280;33291;46.222;26.460;2023-04-04T10:59:31;96184.63;;;0.44;90.40
47556;BME280;33291;46.222;26.460;2023-04-04T11:01:58;96179.69;;;0.41;91.17
47556;BME280;33291;46.222;26.460;2023-04-04T11:04:36;96191.50;;;0.43;91.24
47556;BME280;33291;46.222;26.460;2023-04-04T11:09:54;96194.06;;;0.43;91.66
47556;BME280;33291;46.222;26.460;2023-04-04T11:12:30;96189.09;;;0.40;91.18
47556;BME280;33291;46.222;26.460;2023-04-04T11:20:20;96174.97;;;0.33;91.84
47556;BME280;33291;46.222;26.460;2023-04-04T11:22:49;96165.22;;;0.24;92.44
47556;BME280;33291;46.222;26.460;2023-04-04T11:25:34;96170.59;;;0.19;92.52
47556;BME280;33291;46.222;26.460;2023-04-04T11:28:27;96166.97;;;0.07;93.02
47556;BME280;33291;46.222;26.460;2023-04-04T11:34:04;96196.13;;;0.21;92.88
47556;BME280;33291;46.222;26.460;2023-04-04T11:39:20;96208.13;;;0.20;93.02
47556;BME280;33291;46.222;26.460;2023-04-04T11:42:05;96211.59;;;0.19;93.33
47556;BME280;33291;46.222;26.460;2023-04-04T11:49:45;96214.06;;;0.21;93.34
47556;BME280;33291;46.222;26.460;2023-04-04T11:52:13;96215.81;;;0.20;93.44
47556;BME280;33291;46.222;26.460;2023-04-04T11:54:41;96208.13;;;0.20;93.76
47556;BME280;33291;46.222;26.460;2023-04-04T11:57:14;96207.97;;;0.23;93.39
47556;BME280;33291;46.222;26.460;2023-04-04T11:59:46;96210.00;;;0.16;93.71
47556;BME280;33291;46.222;26.460;2023-04-04T12:02:15;96214.22;;;0.17;93.65
47556;BME280;33291;46.222;26.460;2023-04-04T12:04:45;96215.91;;;0.19;93.53
47556;BME280;33291;46.222;26.460;2023-04-04T12:07:12;96210.59;;;0.22;93.58
47556;BME280;33291;46.222;26.460;2023-04-04T12:09:38;96196.06;;;0.22;93.75
47556;BME280;33291;46.222;26.460;2023-04-04T12:12:04;96183.16;;;0.24;93.40
47556;BME280;33291;46.222;26.460;2023-04-04T12:14:32;96188.72;;;0.32;93.61
47556;BME280;33291;46.222;26.460;2023-04-04T12:16:58;96174.41;;;0.28;93.28
47556;BME280;33291;46.222;26.460;2023-04-04T12:19:26;96177.53;;;0.33;93.21
47556;BME280;33291;46.222;26.460;2023-04-04T12:21:52;96166.94;;;0.39;92.92
47556;BME280;33291;46.222;26.460;2023-04-04T12:24:19;96157.63;;;0.38;92.56
47556;BME280;33291;46.222;26.460;2023-04-04T12:26:46;96168.44;;;0.43;92.16
47556;BME280;33291;46.222;26.460;2023-04-04T12:29:14;96162.41;;;0.44;91.85
47556;BME280;33291;46.222;26.460;2023-04-04T12:31:42;96171.00;;;0.43;91.31
47556;BME280;33291;46.222;26.460;2023-04-04T12:34:39;96170.91;;;0.45;91.28
47556;BME280;33291;46.222;26.460;2023-04-04T12:37:08;96171.91;;;0.42;91.12
47556;BME280;33291;46.222;26.460;2023-04-04T12:39:39;96176.13;;;0.43;91.20
47556;BME280;33291;46.222;26.460;2023-04-04T12:42:10;96176.78;;;0.47;91.44
47556;BME280;33291;46.222;26.460;2023-04-04T12:44:38;96174.13;;;0.48;92.01
47556;BME280;33291;46.222;26.460;2023-04-04T12:47:05;96180.00;;;0.50;91.30
47556;BME280;33291;46.222;26.460;2023-04-04T12:49:33;96178.19;;;0.52;91.32
47556;BME280;33291;46.222;26.460;2023-04-04T12:51:59;96169.75;;;0.50;91.30
47556;BME280;33291;46.222;26.460;2023-04-04T12:54:34;96173.22;;;0.49;91.43
47556;BME280;33291;46.222;26.460;2023-04-04T12:57:03;96163.69;;;0.51;91.07
47556;BME280;33291;46.222;26.460;2023-04-04T12:59:31;96156.84;;;0.52;91.07
47556;BME280;33291;46.222;26.460;2023-04-04T13:01:57;96151.66;;;0.53;91.07
47556;BME280;33291;46.222;26.460;2023-04-04T13:04:25;96150.88;;;0.51;90.90
47556;BME280;33291;46.222;26.460;2023-04-04T13:06:50;96150.00;;;0.52;90.80
47556;BME280;33291;46.222;26.460;2023-04-04T13:09:18;96156.84;;;0.52;91.02
47556;BME280;33291;46.222;26.460;2023-04-04T13:12:05;96156.94;;;0.50;90.95
47556;BME280;33291;46.222;26.460;2023-04-04T13:15:03;96159.34;;;0.53;91.08
47556;BME280;33291;46.222;26.460;2023-04-04T13:17:45;96125.06;;;0.40;91.13
47556;BME280;33291;46.222;26.460;2023-04-04T13:20:11;96147.44;;;0.52;91.01
47556;BME280;33291;46.222;26.460;2023-04-04T13:22:38;96145.69;;;0.53;90.28
47556;BME280;33291;46.222;26.460;2023-04-04T13:25:05;96147.03;;;0.44;90.51
47556;BME280;33291;46.222;26.460;2023-04-04T13:27:31;96132.09;;;0.37;90.52
47556;BME280;33291;46.222;26.460;2023-04-04T13:29:57;96148.09;;;0.40;90.86
47556;BME280;33291;46.222;26.460;2023-04-04T13:32:22;96151.50;;;0.41;90.88
47556;BME280;33291;46.222;26.460;2023-04-04T13:34:48;96153.22;;;0.40;91.29
47556;BME280;33291;46.222;26.460;2023-04-04T13:37:13;96145.00;;;0.35;90.60
47556;BME280;33291;46.222;26.460;2023-04-04T13:39:38;96153.97;;;0.42;90.77
47556;BME280;33291;46.222;26.460;2023-04-04T13:42:05;96144.66;;;0.41;90.52
47556;BME280;33291;46.222;26.460;2023-04-04T13:44:32;96128.84;;;0.33;90.98
47556;BME280;33291;46.222;26.460;2023-04-04T13:46:57;96141.16;;;0.42;91.36
47556;BME280;33291;46.222;26.460;2023-04-04T13:49:23;96132.75;;;0.40;91.01
47556;BME280;33291;46.222;26.460;2023-04-04T13:51:48;96139.25;;;0.46;91.31
47556;BME280;33291;46.222;26.460;2023-04-04T13:54:14;96131.06;;;0.39;90.97
47556;BME280;33291;46.222;26.460;2023-04-04T13:56:39;96154.56;;;0.47;90.80
47556;BME280;33291;46.222;26.460;2023-04-04T13:59:05;96151.06;;;0.48;90.63
47556;BME280;33291;46.222;26.460;2023-04-04T14:01:31;96150.34;;;0.46;90.77
47556;BME280;33291;46.222;26.460;2023-04-04T14:03:56;96154.06;;;0.41;90.74
47556;BME280;33291;46.222;26.460;2023-04-04T14:06:22;96169.34;;;0.42;91.05
47556;BME280;33291;46.222;26.460;2023-04-04T14:08:48;96171.00;;;0.43;90.97
47556;BME280;33291;46.222;26.460;2023-04-04T14:11:13;96155.25;;;0.35;91.10
47556;BME280;33291;46.222;26.460;2023-04-04T14:13:40;96157.22;;;0.30;91.03
47556;BME280;33291;46.222;26.460;2023-04-04T14:16:06;96157.03;;;0.33;91.46
47556;BME280;33291;46.222;26.460;2023-04-04T14:18:33;96154.91;;;0.25;91.91
47556;BME280;33291;46.222;26.460;2023-04-04T14:20:59;96174.25;;;0.31;91.96
47556;BME280;33291;46.222;26.460;2023-04-04T14:23:25;96164.00;;;0.31;92.02
47556;BME280;33291;46.222;26.460;2023-04-04T14:25:51;96182.50;;;0.36;91.71
47556;BME280;33291;46.222;26.460;2023-04-04T14:28:17;96168.78;;;0.37;92.07
47556;BME280;33291;46.222;26.460;2023-04-04T14:30:43;96173.91;;;0.37;91.90
47556;BME280;33291;46.222;26.460;2023-04-04T14:33:08;96159.13;;;0.26;92.67
47556;BME280;33291;46.222;26.460;2023-04-04T14:35:34;96153.75;;;0.31;92.61
47556;BME280;33291;46.222;26.460;2023-04-04T14:38:01;96161.59;;;0.28;92.47
47556;BME280;33291;46.222;26.460;2023-04-04T14:40:27;96161.59;;;0.28;92.60
47556;BME280;33291;46.222;26.460;2023-04-04T14:42:53;96165.66;;;0.32;92.23
47556;BME280;33291;46.222;26.460;2023-04-04T14:45:18;96172.09;;;0.23;92.41
47556;BME280;33291;46.222;26.460;2023-04-04T14:47:44;96168.69;;;0.23;92.61
47556;BME280;33291;46.222;26.460;2023-04-04T14:50:10;96164.50;;;0.22;92.87
47556;BME280;33291;46.222;26.460;2023-04-04T14:52:36;96162.66;;;0.24;92.93
47556;BME280;33291;46.222;26.460;2023-04-04T14:55:01;96173.56;;;0.27;92.80
47556;BME280;33291;46.222;26.460;2023-04-04T14:57:27;96174.50;;;0.26;92.79
47556;BME280;33291;46.222;26.460;2023-04-04T14:59:52;96167.78;;;0.24;92.99
47556;BME280;33291;46.222;26.460;2023-04-04T15:02:18;96167.22;;;0.19;92.64
47556;BME280;33291;46.222;26.460;2023-04-04T15:04:44;96173.81;;;0.23;92.79
47556;BME280;33291;46.222;26.460;2023-04-04T15:07:09;96172.19;;;0.22;92.93
47556;BME280;33291;46.222;26.460;2023-04-04T15:09:35;96171.41;;;0.20;92.97
47556;BME280;33291;46.222;26.460;2023-04-04T15:12:00;96166.28;;;0.20;93.23
47556;BME280;33291;46.222;26.460;2023-04-04T15:14:26;96165.56;;;0.17;93.02
47556;BME280;33291;46.222;26.460;2023-04-04T15:16:52;96160.69;;;0.13;93.33
47556;BME280;33291;46.222;26.460;2023-04-04T15:19:18;96171.75;;;0.13;93.20
47556;BME280;33291;46.222;26.460;2023-04-04T15:21:44;96176.06;;;0.13;93.57
47556;BME280;33291;46.222;26.460;2023-04-04T15:24:09;96158.78;;;0.01;94.28
47556;BME280;33291;46.222;26.460;2023-04-04T15:26:35;96160.38;;;0.03;93.87
47556;BME280;33291;46.222;26.460;2023-04-04T15:29:00;96172.09;;;0.07;93.81
47556;BME280;33291;46.222;26.460;2023-04-04T15:31:26;96178.06;;;0.08;94.07
47556;BME280;33291;46.222;26.460;2023-04-04T15:33:51;96173.75;;;0.08;94.13
47556;BME280;33291;46.222;26.460;2023-04-04T15:36:19;96172.94;;;0.08;94.37
47556;BME280;33291;46.222;26.460;2023-04-04T15:38:47;96151.38;;;-0.04;94.12
47556;BME280;33291;46.222;26.460;2023-04-04T15:41:13;96169.59;;;0.06;94.05
47556;BME280;33291;46.222;26.460;2023-04-04T15:43:38;96166.06;;;0.08;94.32
47556;BME280;33291;46.222;26.460;2023-04-04T15:46:04;96170.63;;;0.03;94.28
47556;BME280;33291;46.222;26.460;2023-04-04T15:48:29;96164.97;;;-0.04;95.13
47556;BME280;33291;46.222;26.460;2023-04-04T15:50:58;96134.50;;;-0.24;95.17
47556;BME280;33291;46.222;26.460;2023-04-04T15:53:25;96174.25;;;-0.01;94.82
47556;BME280;33291;46.222;26.460;2023-04-04T15:55:50;96165.88;;;-0.05;94.94
47556;BME280;33291;46.222;26.460;2023-04-04T15:58:16;96170.78;;;0.00;94.80
47556;BME280;33291;46.222;26.460;2023-04-04T16:00:44;96169.13;;;-0.01;94.65
47556;BME280;33291;46.222;26.460;2023-04-04T16:03:10;96169.28;;;-0.04;94.78
47556;BME280;33291;46.222;26.460;2023-04-04T16:05:35;96169.53;;;-0.09;94.71
47556;BME280;33291;46.222;26.460;2023-04-04T16:08:01;96161.16;;;-0.12;94.70
47556;BME280;33291;46.222;26.460;2023-04-04T16:10:27;96178.03;;;-0.08;95.14
47556;BME280;33291;46.222;26.460;2023-04-04T16:12:52;96162.09;;;-0.13;94.96
47556;BME280;33291;46.222;26.460;2023-04-04T16:15:18;96176.38;;;-0.09;95.07
47556;BME280;33291;46.222;26.460;2023-04-04T16:17:43;96133.41;;;-0.36;95.31
47556;BME280;33291;46.222;26.460;2023-04-04T16:20:10;96165.97;;;-0.22;95.25
47556;BME280;33291;46.222;26.460;2023-04-04T16:22:36;96170.09;;;-0.20;95.16
47556;BME280;33291;46.222;26.460;2023-04-04T16:25:01;96175.06;;;-0.16;95.38
47556;BME280;33291;46.222;26.460;2023-04-04T16:27:27;96172.59;;;-0.18;95.47
47556;BME280;33291;46.222;26.460;2023-04-04T16:29:52;96175.78;;;-0.14;95.35
47556;BME280;33291;46.222;26.460;2023-04-04T16:32:18;96173.31;;;-0.16;95.39
47556;BME280;33291;46.222;26.460;2023-04-04T16:34:43;96172.50;;;-0.16;95.71
47556;BME280;33291;46.222;26.460;2023-04-04T16:37:09;96166.63;;;-0.19;95.45
47556;BME280;33291;46.222;26.460;2023-04-04T16:39:36;96171.72;;;-0.19;95.90
47556;BME280;33291;46.222;26.460;2023-04-04T16:42:01;96156.63;;;-0.23;95.90
47556;BME280;33291;46.222;26.460;2023-04-04T16:44:27;96142.72;;;-0.35;96.26
47556;BME280;33291;46.222;26.460;2023-04-04T16:46:52;96163.66;;;-0.27;95.96
47556;BME280;33291;46.222;26.460;2023-04-04T16:49:17;96164.63;;;-0.29;95.94
47556;BME280;33291;46.222;26.460;2023-04-04T16:51:43;96165.69;;;-0.33;96.55
47556;BME280;33291;46.222;26.460;2023-04-04T16:54:08;96173.22;;;-0.30;96.59
47556;BME280;33291;46.222;26.460;2023-04-04T16:56:34;96088.13;;;-0.83;96.49
47556;BME280;33291;46.222;26.460;2023-04-04T16:59:00;96171.66;;;-0.33;96.86
47556;BME280;33291;46.222;26.460;2023-04-04T17:01:25;96167.34;;;-0.32;96.88
47556;BME280;33291;46.222;26.460;2023-04-04T17:03:51;96128.25;;;-0.52;96.80
47556;BME280;33291;46.222;26.460;2023-04-04T17:06:17;96163.81;;;-0.30;96.62
47556;BME280;33291;46.222;26.460;2023-04-04T17:08:42;96168.94;;;-0.30;96.25
47556;BME280;33291;46.222;26.460;2023-04-04T17:11:10;96167.78;;;-0.24;96.34
47556;BME280;33291;46.222;26.460;2023-04-04T17:13:37;96154.47;;;-0.31;96.46
47556;BME280;33291;46.222;26.460;2023-04-04T17:16:02;96165.47;;;-0.29;96.41
47556;BME280;33291;46.222;26.460;2023-04-04T17:18:28;96169.91;;;-0.32;96.39
47556;BME280;33291;46.222;26.460;2023-04-04T17:20:54;96179.25;;;-0.31;96.40
47556;BME280;33291;46.222;26.460;2023-04-04T17:23:19;96172.53;;;-0.34;96.57
47556;BME280;33291;46.222;26.460;2023-04-04T17:25:45;96172.53;;;-0.34;96.66
47556;BME280;33291;46.222;26.460;2023-04-04T17:28:10;96165.75;;;-0.35;96.76
47556;BME280;33291;46.222;26.460;2023-04-04T17:30:36;96167.59;;;-0.37;96.66
47556;BME280;33291;46.222;26.460;2023-04-04T17:33:01;96176.75;;;-0.33;96.99
47556;BME280;33291;46.222;26.460;2023-04-04T17:35:27;96185.34;;;-0.34;97.03
47556;BME280;33291;46.222;26.460;2023-04-04T17:37:53;96183.69;;;-0.35;97.63
47556;BME280;33291;46.222;26.460;2023-04-04T17:40:19;96183.09;;;-0.40;97.27
47556;BME280;33291;46.222;26.460;2023-04-04T17:42:45;96186.63;;;-0.43;97.34
47556;BME280;33291;46.222;26.460;2023-04-04T17:45:11;96187.47;;;-0.42;97.36
47556;BME280;33291;46.222;26.460;2023-04-04T17:47:36;96192.44;;;-0.39;97.09
47556;BME280;33291;46.222;26.460;2023-04-04T17:50:02;96187.31;;;-0.39;97.05
47556;BME280;33291;46.222;26.460;2023-04-04T17:52:28;96189.03;;;-0.40;96.98
47556;BME280;33291;46.222;26.460;2023-04-04T17:54:54;96196.56;;;-0.37;96.76
47556;BME280;33291;46.222;26.460;2023-04-04T17:57:19;96189.88;;;-0.39;97.13
47556;BME280;33291;46.222;26.460;2023-04-04T17:59:45;96190.78;;;-0.40;97.06
47556;BME280;33291;46.222;26.460;2023-04-04T18:02:13;96198.28;;;-0.37;97.29
47556;BME280;33291;46.222;26.460;2023-04-04T18:04:38;96192.53;;;-0.41;97.21
47556;BME280;33291;46.222;26.460;2023-04-04T18:07:04;96199.88;;;-0.34;96.97
47556;BME280;33291;46.222;26.460;2023-04-04T18:09:33;96205.06;;;-0.36;96.96
47556;BME280;33291;46.222;26.460;2023-04-04T18:18:34;96217.72;;;-0.33;96.49
47556;BME280;33291;46.222;26.460;2023-04-04T18:21:00;96210.03;;;-0.33;96.75
47556;BME280;33291;46.222;26.460;2023-04-04T18:23:26;96215.00;;;-0.30;96.61
47556;BME280;33291;46.222;26.460;2023-04-04T18:25:52;96215.00;;;-0.30;96.55
47556;BME280;33291;46.222;26.460;2023-04-04T18:28:17;96208.97;;;-0.29;96.77
47556;BME280;33291;46.222;26.460;2023-04-04T18:30:43;96201.31;;;-0.29;96.78
47556;BME280;33291;46.222;26.460;2023-04-04T18:33:08;96209.72;;;-0.27;96.57
47556;BME280;33291;46.222;26.460;2023-04-04T18:42:25;96198.81;;;-0.30;96.43
47556;BME280;33291;46.222;26.460;2023-04-04T18:44:51;96181.97;;;-0.34;96.55
47556;BME280;33291;46.222;26.460;2023-04-04T18:47:17;96201.31;;;-0.29;96.68
47556;BME280;33291;46.222;26.460;2023-04-04T18:49:43;96193.69;;;-0.30;96.62
47556;BME280;33291;46.222;26.460;2023-04-04T18:52:08;96200.69;;;-0.34;96.79
47556;BME280;33291;46.222;26.460;2023-04-04T18:54:33;96203.09;;;-0.31;96.93
47556;BME280;33291;46.222;26.460;2023-04-04T18:56:59;96188.88;;;-0.37;97.01
47556;BME280;33291;46.222;26.460;2023-04-04T18:59:25;96199.81;;;-0.33;96.81
47556;BME280;33291;46.222;26.460;2023-04-04T19:01:50;96192.94;;;-0.32;96.99
47556;BME280;33291;46.222;26.460;2023-04-04T19:04:21;96184.44;;;-0.33;97.06
47556;BME280;33291;46.222;26.460;2023-04-04T20:42:35;96174.28;;;-0.68;99.58
47556;BME280;33291;46.222;26.460;2023-04-04T20:47:52;96177.28;;;-0.60;100.00
47556;BME280;33291;46.222;26.460;2023-04-04T20:52:52;96173.66;;;-0.56;100.00
47556;BME280;33291;46.222;26.460;2023-04-04T20:55:21;96178.53;;;-0.51;100.00
47556;BME280;33291;46.222;26.460;2023-04-04T20:57:50;96178.31;;;-0.46;100.00
47556;BME280;33291;46.222;26.460;2023-04-04T21:02:56;96177.63;;;-0.50;100.00
47556;BME280;33291;46.222;26.460;2023-04-04T21:05:32;96188.38;;;-0.43;99.85
47556;BME280;33291;46.222;26.460;2023-04-04T21:07:59;96179.97;;;-0.45;99.67
47556;BME280;33291;46.222;26.460;2023-04-04T21:12:55;96187.47;;;-0.42;99.46
47556;BME280;33291;46.222;26.460;2023-04-04T21:15:25;96173.91;;;-0.44;99.41
47556;BME280;33291;46.222;26.460;2023-04-04T21:17:53;96174.84;;;-0.45;99.10
47556;BME280;33291;46.222;26.460;2023-04-04T21:25:45;96176.47;;;-0.44;99.15
47556;BME280;33291;46.222;26.460;2023-04-04T21:28:10;96178.13;;;-0.43;99.01
47556;BME280;33291;46.222;26.460;2023-04-04T21:30:44;96177.31;;;-0.44;98.90
47556;BME280;33291;46.222;26.460;2023-04-04T21:33:15;96165.59;;;-0.48;98.78
47556;BME280;33291;46.222;26.460;2023-04-04T21:35:51;96167.16;;;-0.45;98.92
47556;BME280;33291;46.222;26.460;2023-04-04T21:41:01;96158.81;;;-0.49;98.73
47556;BME280;33291;46.222;26.460;2023-04-04T21:43:31;96175.50;;;-0.42;98.61
47556;BME280;33291;46.222;26.460;2023-04-04T21:45:56;96146.41;;;-0.57;98.67
47556;BME280;33291;46.222;26.460;2023-04-04T21:48:22;96143.78;;;-0.55;98.44
47556;BME280;33291;46.222;26.460;2023-04-04T21:50:48;96166.25;;;-0.44;98.52
47556;BME280;33291;46.222;26.460;2023-04-04T21:53:13;96169.41;;;-0.39;98.35
47556;BME280;33291;46.222;26.460;2023-04-04T21:55:44;96139.66;;;-0.58;98.54
47556;BME280;33291;46.222;26.460;2023-04-04T21:58:10;96172.78;;;-0.39;98.54
47556;BME280;33291;46.222;26.460;2023-04-04T22:00:36;96168.56;;;-0.40;98.42
47556;BME280;33291;46.222;26.460;2023-04-04T22:03:01;96172.69;;;-0.37;98.53
47556;BME280;33291;46.222;26.460;2023-04-04T22:05:27;96168.47;;;-0.38;98.28
47556;BME280;33291;46.222;26.460;2023-04-04T22:07:52;96163.69;;;-0.44;98.22
47556;BME280;33291;46.222;26.460;2023-04-04T22:16:41;96169.56;;;-0.42;98.14
47556;BME280;33291;46.222;26.460;2023-04-04T22:19:07;96169.56;;;-0.42;98.41
47556;BME280;33291;46.222;26.460;2023-04-04T22:21:35;96168.06;;;-0.46;98.10
47556;BME280;33291;46.222;26.460;2023-04-04T22:24:00;96174.84;;;-0.45;98.40
47556;BME280;33291;46.222;26.460;2023-04-04T22:26:26;96174.94;;;-0.47;98.35
47556;BME280;33291;46.222;26.460;2023-04-04T22:28:59;96174.16;;;-0.49;98.23
47556;BME280;33291;46.222;26.460;2023-04-04T22:31:25;96167.50;;;-0.51;98.52
47556;BME280;33291;46.222;26.460;2023-04-04T22:33:51;96162.53;;;-0.55;98.60
47556;BME280;33291;46.222;26.460;2023-04-04T22:36:16;96158.97;;;-0.52;98.79
47556;BME280;33291;46.222;26.460;2023-04-04T22:38:42;96160.78;;;-0.54;98.68
47556;BME280;33291;46.222;26.460;2023-04-04T22:41:08;96155.75;;;-0.56;98.30
47556;BME280;33291;46.222;26.460;2023-04-04T22:43:33;96153.19;;;-0.56;98.46
47556;BME280;33291;46.222;26.460;2023-04-04T22:45:59;96153.13;;;-0.54;98.33
47556;BME280;33291;46.222;26.460;2023-04-04T22:48:24;96148.22;;;-0.59;98.35
47556;BME280;33291;46.222;26.460;2023-04-04T22:50:50;96138.16;;;-0.62;98.42
47556;BME280;33291;46.222;26.460;2023-04-04T22:53:22;96141.78;;;-0.66;98.33
47556;BME280;33291;46.222;26.460;2023-04-04T22:55:52;96154.00;;;-0.55;98.52
47556;BME280;33291;46.222;26.460;2023-04-04T22:58:19;96137.47;;;-0.65;98.40
47556;BME280;33291;46.222;26.460;2023-04-04T23:00:45;96154.09;;;-0.57;98.39
47556;BME280;33291;46.222;26.460;2023-04-04T23:03:11;96151.53;;;-0.57;98.16
47556;BME280;33291;46.222;26.460;2023-04-04T23:05:36;96156.50;;;-0.54;98.49
47556;BME280;33291;46.222;26.460;2023-04-04T23:08:02;96154.69;;;-0.51;98.47
47556;BME280;33291;46.222;26.460;2023-04-04T23:10:28;96151.38;;;-0.54;98.08
47556;BME280;33291;46.222;26.460;2023-04-04T23:12:54;96158.16;;;-0.52;97.89
47556;BME280;33291;46.222;26.460;2023-04-04T23:15:20;96152.47;;;-0.58;98.14
47556;BME280;33291;46.222;26.460;2023-04-04T23:17:45;96161.53;;;-0.52;98.31
47556;BME280;33291;46.222;26.460;2023-04-04T23:20:11;96149.06;;;-0.58;98.24
47556;BME280;33291;46.222;26.460;2023-04-04T23:22:37;96161.59;;;-0.54;98.08
47556;BME280;33291;46.222;26.460;2023-04-04T23:25:05;96157.66;;;-0.59;98.18
47556;BME280;33291;46.222;26.460;2023-04-04T23:27:32;96155.00;;;-0.58;98.11
47556;BME280;33291;46.222;26.460;2023-04-04T23:29:58;96152.47;;;-0.58;98.11
47556;BME280;33291;46.222;26.460;2023-04-04T23:32:28;96158.31;;;-0.56;98.22
47556;BME280;33291;46.222;26.460;2023-04-04T23:34:53;96154.09;;;-0.57;98.24
47556;BME280;33291;46.222;26.460;2023-04-04T23:37:19;96144.78;;;-0.58;98.35
47556;BME280;33291;46.222;26.460;2023-04-04T23:39:44;96149.06;;;-0.58;98.50
47556;BME280;33291;46.222;26.460;2023-04-04T23:42:10;96151.53;;;-0.57;98.27
47556;BME280;33291;46.222;26.460;2023-04-04T23:44:35;96151.53;;;-0.57;98.29
47556;BME280;33291;46.222;26.460;2023-04-04T23:47:01;96143.19;;;-0.60;98.34
47556;BME280;33291;46.222;26.460;2023-04-04T23:49:26;96139.88;;;-0.62;98.31
47556;BME280;33291;46.222;26.460;2023-04-04T23:51:52;96150.88;;;-0.60;98.20
47556;BME280;33291;46.222;26.460;2023-04-04T23:54:17;96143.44;;;-0.65;98.39
47556;BME280;33291;46.222;26.460;2023-04-04T23:56:43;96146.56;;;-0.60;98.40
47556;BME280;33291;46.222;26.460;2023-04-04T23:59:08;96142.31;;;-0.59;98.36
